Airfield :
LOGIN :

Register | Disclaimer

   EN    FR    IT 

 










Legend :    VFR   Marginal VFR   IFR   Intensive IFR   Very Intensive IFR
Visi :
Ceiling :
>= 8 km
>= 3000ft
5 to 8 km
1000 to 3000 ft
1500m to 5 km
500 to 1000 ft
800 to 1500m
200 to 500 ft
< 800m
< 200 ft
Symbols :   Thunderstorms  Fog  Heavy snow  Heavy precipitations  Wind > 20 kt
SIGMETs :     Misc.  Thunderstorms  Icing  Turbulence  Mountain Waves  Volcanic Ashes







- Airport Elevation : 265 ft
- IATA code : BJY


LYBT - Batajnica Air Base

CURRENT METAR :
  • 210500Z 17006KT 120V240 CAVOK 13/09 Q1009 NOSIG

EXPIRED METARs :
  • 210430Z 16006KT 130V190 CAVOK 13/10 Q1009 NOSIG
  • 210400Z 16006KT CAVOK 12/09 Q1009 NOSIG
  • 210330Z 16006KT CAVOK 11/10 Q1009 NOSIG
  • 210300Z 16005KT CAVOK 10/10 Q1009 NOSIG
  • 210230Z 15006KT CAVOK 10/10 Q1009 NOSIG

TAF TAF LYBT
Valid from the 21 at 00:00 until the 22 at 00:00 UTC


202300Z 2100/2124 18006KT CAVOK TX22/2113Z TN09/2104Z
PROB40
TEMPO 2113/2116 24015KT SHRA FEW027TCU SCT035
No reported NOTAMs for that airfield.



MET'MAP, your aeronautical weather chart ! - Copyright ORBIFLY December 2007 - Disclaimer

ORBIFLY MET'MAP TEAM :

Programming & Development : Alexandra Zaïnal
Concept & Development : Baudouin d'Aumeries
Co-Development & Prog : Marc-Olivier Méhu
Technical & hardware support : Manuel Goepfert

Contact : metmap@orbifly.com




SOURCES & CREDITS :

   NOAA